Time;durP1;ratioP1;P1;durP2;ratioP2;P2;SDS_P1;SDS_P2;PMS_P1;PMS_P2;Temp;Humidity;BMP_temperature;BMP_pressure;BME280_temperature;BME280_humidity;BME280_pressure;Samples;Min_cycle;Max_cycle;Signal;HPM_P1;HPM_P2
2021/11/04 00:00:14;;;;;;;2.75;2.47;;;6.90;99.90;;;;;;5050772;28;20021;-72
2021/11/04 00:02:40;;;;;;;3.38;2.15;;;6.90;99.90;;;;;;5052582;28;20087;-72
2021/11/04 00:05:07;;;;;;;2.42;2.17;;;6.90;99.90;;;;;;5052092;28;20059;-72
2021/11/04 00:07:33;;;;;;;2.30;2.03;;;6.90;99.90;;;;;;5051029;28;20029;-73
2021/11/04 00:09:59;;;;;;;2.70;2.30;;;6.90;99.90;;;;;;5051653;28;20029;-72
2021/11/04 00:12:25;;;;;;;2.95;2.25;;;6.90;99.90;;;;;;5050543;28;20035;-72
2021/11/04 00:14:51;;;;;;;3.67;2.70;;;6.80;99.90;;;;;;5051195;28;20048;-72
2021/11/04 00:17:17;;;;;;;3.70;2.53;;;6.80;99.90;;;;;;5050464;28;20104;-72
2021/11/04 00:19:43;;;;;;;2.58;2.38;;;6.80;99.90;;;;;;5053221;28;20025;-72
2021/11/04 00:22:11;;;;;;;2.50;2.00;;;6.80;99.90;;;;;;5055304;28;20033;-72
2021/11/04 00:24:37;;;;;;;3.10;2.08;;;6.80;99.90;;;;;;5054835;28;20021;-73
2021/11/04 00:27:03;;;;;;;1.80;1.60;;;6.90;99.90;;;;;;5055189;28;20363;-73
2021/11/04 00:29:29;;;;;;;1.60;1.10;;;6.90;99.90;;;;;;5054527;28;20044;-72
2021/11/04 00:31:55;;;;;;;2.75;1.25;;;6.90;99.90;;;;;;5055268;28;20421;-73
2021/11/04 00:34:21;;;;;;;2.35;1.38;;;7.00;99.90;;;;;;5054235;28;20098;-72
2021/11/04 00:36:48;;;;;;;1.52;1.20;;;7.00;99.90;;;;;;5055017;28;20025;-73
2021/11/04 00:39:14;;;;;;;1.48;1.35;;;7.00;99.90;;;;;;5054701;28;20107;-72
2021/11/04 00:41:40;;;;;;;1.90;1.38;;;7.00;99.90;;;;;;5054355;28;20040;-72
2021/11/04 00:44:07;;;;;;;1.90;1.80;;;7.00;99.90;;;;;;5055105;28;20482;-70
2021/11/04 00:46:33;;;;;;;1.38;1.27;;;7.00;99.90;;;;;;5053754;28;20627;-70
2021/11/04 00:48:59;;;;;;;2.83;1.33;;;7.00;99.90;;;;;;5054569;28;20033;-72
2021/11/04 00:51:25;;;;;;;1.10;1.00;;;7.00;99.90;;;;;;5053807;28;20033;-70
2021/11/04 00:53:52;;;;;;;2.22;1.00;;;7.10;99.90;;;;;;5054523;28;20056;-70
2021/11/04 00:56:17;;;;;;;0.70;0.68;;;7.10;99.90;;;;;;5052676;28;20347;-70
2021/11/04 00:58:43;;;;;;;1.88;0.75;;;7.10;99.90;;;;;;5054802;28;20031;-70
2021/11/04 01:01:09;;;;;;;2.15;1.00;;;7.10;99.90;;;;;;5055017;28;20428;-70
2021/11/04 01:03:35;;;;;;;1.45;0.70;;;7.20;99.90;;;;;;5053051;28;20496;-70
2021/11/04 01:06:01;;;;;;;4.80;0.60;;;7.20;99.90;;;;;;5054997;28;20025;-70
2021/11/04 01:08:27;;;;;;;2.60;1.00;;;7.10;99.90;;;;;;5053785;28;20025;-70
2021/11/04 01:10:53;;;;;;;0.73;0.73;;;7.10;99.90;;;;;;5054556;28;20041;-70
2021/11/04 01:13:18;;;;;;;0.77;0.77;;;7.20;99.90;;;;;;5053689;28;20072;-70
2021/11/04 01:15:44;;;;;;;1.85;0.70;;;7.20;99.90;;;;;;5054203;28;20060;-70
2021/11/04 01:18:10;;;;;;;1.00;0.73;;;7.20;99.90;;;;;;5053656;28;20037;-70
2021/11/04 01:20:36;;;;;;;0.70;0.70;;;7.20;99.90;;;;;;5053578;28;20093;-70
2021/11/04 01:23:01;;;;;;;0.57;0.57;;;7.30;99.90;;;;;;5053990;28;20024;-70
2021/11/04 01:25:27;;;;;;;4.35;0.70;;;7.20;99.90;;;;;;5053567;28;20028;-70
2021/11/04 01:27:53;;;;;;;0.95;0.75;;;7.20;99.90;;;;;;5053692;28;20440;-70
2021/11/04 01:30:18;;;;;;;1.35;0.80;;;7.20;99.90;;;;;;5052833;28;20505;-72
2021/11/04 01:32:44;;;;;;;1.20;0.95;;;7.20;99.90;;;;;;5053501;28;20029;-69
2021/11/04 01:35:10;;;;;;;0.82;0.77;;;7.30;99.90;;;;;;5053790;28;20033;-70
2021/11/04 01:37:36;;;;;;;1.02;0.93;;;7.30;99.90;;;;;;5052859;28;20021;-69
2021/11/04 01:40:04;;;;;;;3.03;1.52;;;7.40;99.90;;;;;;5054037;28;20032;-69
2021/11/04 01:42:29;;;;;;;1.00;1.00;;;7.30;99.90;;;;;;5053112;28;20045;-71
2021/11/04 01:44:55;;;;;;;1.35;0.98;;;7.30;99.90;;;;;;5053549;28;20490;-71
2021/11/04 01:47:21;;;;;;;1.30;1.10;;;7.20;99.90;;;;;;5052946;28;20079;-69
2021/11/04 01:49:47;;;;;;;1.08;0.90;;;7.20;99.90;;;;;;5053391;28;20025;-70
2021/11/04 01:52:12;;;;;;;1.10;1.00;;;7.20;99.90;;;;;;5053707;28;20383;-69
2021/11/04 01:54:39;;;;;;;1.55;0.90;;;7.10;99.90;;;;;;5052750;28;20247;-70
2021/11/04 01:57:05;;;;;;;1.50;0.93;;;7.10;99.90;;;;;;5052191;28;20032;-70
2021/11/04 01:59:31;;;;;;;1.15;0.90;;;7.00;99.90;;;;;;5052342;28;20029;-70
2021/11/04 02:02:13;;;;;;;1.60;1.50;;;6.90;99.90;;;;;;5053509;28;20462;-70
2021/11/04 02:04:55;;;;;;;1.40;1.00;;;6.80;99.90;;;;;;5052644;28;20037;-70
2021/11/04 02:07:38;;;;;;;1.70;1.10;;;6.70;99.90;;;;;;5052634;28;20425;-69
2021/11/04 02:10:07;;;;;;;0.77;0.73;;;6.60;99.90;;;;;;5053489;28;20521;-70
2021/11/04 02:12:33;;;;;;;1.40;0.85;;;6.60;99.90;;;;;;5053062;28;20036;-70
2021/11/04 02:15:00;;;;;;;1.25;1.10;;;6.60;99.90;;;;;;5053389;28;20028;-70
2021/11/04 02:17:28;;;;;;;1.35;1.17;;;6.50;99.90;;;;;;5052463;28;20025;-70
2021/11/04 02:19:57;;;;;;;2.05;1.35;;;6.40;99.90;;;;;;5053126;28;20044;-70
2021/11/04 02:22:40;;;;;;;4.57;1.73;;;6.30;99.90;;;;;;5052434;28;20112;-69
2021/11/04 02:25:20;;;;;;;1.50;1.40;;;6.10;99.90;;;;;;5053108;28;20025;-70
2021/11/04 02:27:54;;;;;;;1.30;1.20;;;6.10;99.90;;;;;;5053214;28;20037;-70
2021/11/04 02:30:23;;;;;;;5.10;1.85;;;6.10;99.90;;;;;;5051955;28;20029;-69
2021/11/04 02:32:51;;;;;;;1.73;1.63;;;6.00;99.90;;;;;;5052593;28;20040;-69
2021/11/04 02:35:17;;;;;;;2.28;2.00;;;6.00;99.90;;;;;;5052504;28;20029;-69
2021/11/04 02:37:44;;;;;;;2.40;1.95;;;5.90;99.90;;;;;;5052217;28;20162;-69
2021/11/04 02:40:11;;;;;;;1.90;1.80;;;5.80;99.90;;;;;;5052878;28;20078;-70
2021/11/04 02:42:39;;;;;;;2.03;1.83;;;5.80;99.90;;;;;;5051455;28;20045;-70
2021/11/04 02:45:06;;;;;;;2.95;2.00;;;5.80;99.90;;;;;;5052823;28;20047;-70
2021/11/04 02:47:32;;;;;;;2.65;2.17;;;5.70;99.90;;;;;;5052005;28;20047;-70
2021/11/04 02:49:59;;;;;;;2.20;2.00;;;5.70;99.90;;;;;;5052093;28;20446;-70
2021/11/04 02:52:25;;;;;;;1.58;1.48;;;5.70;99.90;;;;;;5051682;28;20032;-69
2021/11/04 02:54:55;;;;;;;4.40;1.98;;;5.70;99.90;;;;;;5052757;28;20476;-70
2021/11/04 02:57:21;;;;;;;;;;;5.70;99.90;;;;;;5052636;28;20028;-69
2021/11/04 02:59:47;;;;;;;2.00;1.80;;;5.60;99.90;;;;;;5054246;28;19904;-70
2021/11/04 03:02:13;;;;;;;4.82;2.30;;;5.60;99.90;;;;;;5052594;28;20532;-70
2021/11/04 03:04:39;;;;;;;1.73;1.63;;;5.60;99.90;;;;;;5051348;28;20039;-70
2021/11/04 03:07:05;;;;;;;1.98;1.77;;;5.50;99.90;;;;;;5051246;28;20115;-69
2021/11/04 03:09:31;;;;;;;1.48;1.38;;;5.50;99.90;;;;;;5050309;28;20082;-70
2021/11/04 03:11:58;;;;;;;2.67;1.52;;;5.40;99.90;;;;;;5050789;28;20428;-70
2021/11/04 03:14:23;;;;;;;1.25;1.00;;;5.40;99.90;;;;;;5050120;28;20036;-69
2021/11/04 03:16:53;;;;;;;3.30;0.70;;;5.50;99.90;;;;;;5051018;28;20024;-69
2021/11/04 03:19:21;;;;;;;0.70;0.70;;;5.50;99.90;;;;;;5049212;28;20035;-69
2021/11/04 03:21:50;;;;;;;0.82;0.80;;;5.50;99.90;;;;;;5048487;28;20056;-69
2021/11/04 03:24:21;;;;;;;1.23;0.82;;;5.40;99.90;;;;;;5050337;28;20036;-70
2021/11/04 03:26:52;;;;;;;0.50;0.50;;;5.40;99.90;;;;;;5048597;28;20021;-70
2021/11/04 03:29:19;;;;;;;1.42;0.60;;;5.40;99.90;;;;;;5050483;28;20067;-70
2021/11/04 03:31:46;;;;;;;0.52;0.52;;;5.30;99.90;;;;;;5050245;28;20489;-71
2021/11/04 03:34:13;;;;;;;0.50;0.40;;;5.30;99.90;;;;;;5050400;28;20024;-70
2021/11/04 03:36:41;;;;;;;0.50;0.50;;;5.30;99.90;;;;;;5049859;28;20590;-70
2021/11/04 03:39:07;;;;;;;0.55;0.40;;;5.30;99.90;;;;;;5047953;28;20048;-70
2021/11/04 03:41:35;;;;;;;1.05;0.50;;;5.20;99.90;;;;;;5050010;28;20359;-71
2021/11/04 03:44:01;;;;;;;0.40;0.40;;;5.30;99.90;;;;;;5050489;28;20056;-69
2021/11/04 03:46:27;;;;;;;0.55;0.22;;;5.30;99.90;;;;;;5049728;28;20358;-69
2021/11/04 03:48:54;;;;;;;0.22;0.20;;;5.20;99.90;;;;;;5050477;28;20013;-69
2021/11/04 03:51:23;;;;;;;1.45;0.30;;;5.20;99.90;;;;;;5049718;28;20037;-69
2021/11/04 03:53:50;;;;;;;0.50;0.35;;;5.20;99.90;;;;;;5050013;28;20112;-69
2021/11/04 03:56:16;;;;;;;0.40;0.40;;;5.30;99.90;;;;;;5054799;28;20037;-69
2021/11/04 03:58:43;;;;;;;0.68;0.65;;;5.30;99.90;;;;;;5053840;28;20458;-69
2021/11/04 04:01:10;;;;;;;0.40;0.40;;;5.20;99.90;;;;;;5054496;28;20069;-70
2021/11/04 04:03:37;;;;;;;0.45;0.40;;;5.20;99.90;;;;;;5053807;28;20025;-69
2021/11/04 04:06:05;;;;;;;0.75;0.40;;;5.20;99.90;;;;;;5054012;28;20032;-69
2021/11/04 04:08:33;;;;;;;0.50;0.47;;;5.20;99.90;;;;;;5053628;28;20369;-69
2021/11/04 04:10:59;;;;;;;0.40;0.40;;;5.20;99.90;;;;;;5054073;28;20504;-69
2021/11/04 04:13:25;;;;;;;0.40;0.40;;;5.20;99.90;;;;;;5051047;28;20112;-68
2021/11/04 04:15:51;;;;;;;0.50;0.50;;;5.20;99.90;;;;;;5053939;28;20112;-69
2021/11/04 04:18:16;;;;;;;1.77;0.57;;;5.20;99.90;;;;;;5054198;28;20524;-69
2021/11/04 04:20:42;;;;;;;0.55;0.52;;;5.20;99.90;;;;;;5053423;28;20029;-68
2021/11/04 04:23:08;;;;;;;1.30;0.60;;;5.10;99.90;;;;;;5053992;28;20025;-68
2021/11/04 04:25:34;;;;;;;0.47;0.47;;;5.10;99.90;;;;;;5053401;28;20044;-68
2021/11/04 04:28:00;;;;;;;0.90;0.57;;;5.10;99.90;;;;;;5053510;28;20025;-68
2021/11/04 04:30:26;;;;;;;0.60;0.60;;;5.10;99.90;;;;;;5053525;28;20025;-68
2021/11/04 04:32:51;;;;;;;0.60;0.60;;;5.00;99.90;;;;;;5054000;28;20017;-68
2021/11/04 04:35:18;;;;;;;0.50;0.50;;;5.10;99.90;;;;;;5053952;28;20459;-68
2021/11/04 04:37:43;;;;;;;0.60;0.60;;;5.10;99.90;;;;;;5053172;28;20473;-68
2021/11/04 04:40:09;;;;;;;0.80;0.80;;;5.10;99.90;;;;;;5053272;28;20029;-69
2021/11/04 04:42:37;;;;;;;0.80;0.80;;;5.10;99.90;;;;;;5052647;28;20450;-68
2021/11/04 04:45:04;;;;;;;0.77;0.77;;;5.10;99.90;;;;;;5053579;28;20067;-68
2021/11/04 04:47:29;;;;;;;1.92;0.75;;;5.10;99.90;;;;;;5052527;28;20033;-68
2021/11/04 04:49:58;;;;;;;0.93;0.80;;;5.10;99.90;;;;;;5053065;28;20457;-68
2021/11/04 04:52:28;;;;;;;1.50;1.00;;;5.10;99.90;;;;;;5052596;28;20028;-69
2021/11/04 04:54:54;;;;;;;2.10;1.35;;;5.10;99.90;;;;;;5053775;28;20025;-68
2021/11/04 04:57:23;;;;;;;1.30;1.20;;;5.10;99.90;;;;;;5053492;28;20144;-68
2021/11/04 04:59:54;;;;;;;0.98;0.98;;;5.10;99.90;;;;;;5053483;28;20020;-68
2021/11/04 05:02:20;;;;;;;0.88;0.88;;;5.10;99.90;;;;;;5052836;28;20087;-68
2021/11/04 05:04:45;;;;;;;1.10;1.10;;;5.10;99.90;;;;;;5050894;28;20531;-68
2021/11/04 05:07:11;;;;;;;1.00;0.90;;;5.10;99.90;;;;;;5053176;28;20060;-68
2021/11/04 05:09:37;;;;;;;2.58;1.77;;;5.00;99.90;;;;;;5052640;28;20095;-68
2021/11/04 05:12:03;;;;;;;9.80;4.38;;;5.00;99.90;;;;;;5052811;28;21313;-68
2021/11/04 05:14:29;;;;;;;7.55;2.70;;;5.00;99.90;;;;;;5051307;28;20500;-68
2021/11/04 05:16:54;;;;;;;4.45;2.33;;;5.00;99.90;;;;;;5052911;28;20095;-68
2021/11/04 05:19:20;;;;;;;4.22;2.17;;;5.00;99.90;;;;;;5052948;28;20071;-68
2021/11/04 05:21:46;;;;;;;3.58;2.13;;;5.00;99.90;;;;;;5052840;28;20083;-68
2021/11/04 05:24:12;;;;;;;5.75;2.50;;;5.00;99.90;;;;;;5051510;28;20385;-68
2021/11/04 05:26:38;;;;;;;4.85;2.38;;;5.00;99.90;;;;;;5052433;28;20025;-69
2021/11/04 05:29:04;;;;;;;3.38;1.92;;;5.00;99.90;;;;;;5054414;28;20363;-69
2021/11/04 05:31:31;;;;;;;1.98;1.30;;;5.00;99.90;;;;;;5053345;28;20111;-68
2021/11/04 05:33:57;;;;;;;2.80;1.73;;;5.00;99.90;;;;;;5054389;28;20029;-68
2021/11/04 05:36:23;;;;;;;1.88;1.40;;;5.10;99.90;;;;;;5052759;28;20021;-68
2021/11/04 05:38:50;;;;;;;1.85;1.60;;;5.00;99.90;;;;;;5054325;28;20032;-69
2021/11/04 05:41:16;;;;;;;2.58;1.50;;;5.00;99.90;;;;;;5054286;28;20363;-69
2021/11/04 05:43:42;;;;;;;1.27;1.05;;;5.00;99.90;;;;;;5050940;28;20036;-68
2021/11/04 05:46:08;;;;;;;2.15;1.70;;;5.00;99.90;;;;;;5053778;28;20067;-68
2021/11/04 05:48:33;;;;;;;2.70;1.38;;;5.00;99.90;;;;;;5051800;28;20454;-68
2021/11/04 05:50:59;;;;;;;0.95;0.77;;;5.00;99.90;;;;;;5053579;28;20032;-68
2021/11/04 05:53:25;;;;;;;0.65;0.65;;;5.10;99.90;;;;;;5052705;28;20104;-68
2021/11/04 05:55:51;;;;;;;0.68;0.60;;;5.10;99.90;;;;;;5053697;28;20047;-68
2021/11/04 05:58:18;;;;;;;0.57;0.57;;;5.10;99.90;;;;;;5053326;28;20025;-68
2021/11/04 06:00:44;;;;;;;0.77;0.70;;;5.00;99.90;;;;;;5052651;28;20163;-68
2021/11/04 06:03:12;;;;;;;1.95;1.15;;;5.10;99.90;;;;;;5053522;28;20112;-68
2021/11/04 06:05:39;;;;;;;4.85;1.05;;;5.00;99.90;;;;;;5052746;28;20107;-69
2021/11/04 06:08:04;;;;;;;6.28;2.58;;;5.00;99.90;;;;;;5053464;28;20033;-68
2021/11/04 06:10:30;;;;;;;0.98;0.77;;;5.00;99.90;;;;;;5051267;28;20103;-68
2021/11/04 06:12:56;;;;;;;0.80;0.80;;;5.00;99.90;;;;;;5053110;28;20029;-68
2021/11/04 06:15:22;;;;;;;1.02;0.65;;;5.00;99.90;;;;;;5052455;28;20374;-68
2021/11/04 06:17:47;;;;;;;0.75;0.70;;;5.00;99.90;;;;;;5052740;28;20033;-68
2021/11/04 06:20:13;;;;;;;0.55;0.55;;;5.00;99.90;;;;;;5051926;28;20116;-69
2021/11/04 06:22:41;;;;;;;0.45;0.43;;;5.00;99.90;;;;;;5051936;28;20073;-69
2021/11/04 06:25:07;;;;;;;1.60;0.57;;;5.00;99.90;;;;;;5053062;28;20021;-70
2021/11/04 06:27:33;;;;;;;0.90;0.73;;;5.00;99.90;;;;;;5051982;28;20114;-68
2021/11/04 06:30:01;;;;;;;2.40;1.17;;;5.00;99.90;;;;;;5053012;28;20032;-68
2021/11/04 06:32:27;;;;;;;3.35;1.50;;;5.00;99.90;;;;;;5069646;28;20362;-70
2021/11/04 06:34:52;;;;;;;4.00;1.25;;;5.10;99.90;;;;;;5071702;28;20025;-68
2021/11/04 06:37:18;;;;;;;1.08;0.95;;;5.10;99.90;;;;;;5053580;28;20191;-71
2021/11/04 06:39:44;;;;;;;1.05;0.95;;;5.10;99.90;;;;;;5051822;28;20119;-68
2021/11/04 06:42:10;;;;;;;3.33;1.50;;;5.20;99.90;;;;;;5050175;28;20052;-68
2021/11/04 06:44:36;;;;;;;1.92;1.40;;;5.20;99.90;;;;;;5050014;28;20502;-70
2021/11/04 06:47:02;;;;;;;1.42;1.25;;;5.20;99.90;;;;;;5052278;28;20021;-68
2021/11/04 06:49:34;;;;;;;2.95;1.33;;;5.30;99.90;;;;;;5052652;28;20104;-68
2021/11/04 06:51:59;;;;;;;1.00;0.90;;;5.30;99.90;;;;;;5050915;28;20047;-68
2021/11/04 06:54:26;;;;;;;1.63;1.10;;;5.30;99.90;;;;;;5051935;28;20021;-68
2021/11/04 06:56:54;;;;;;;0.98;0.88;;;5.30;99.90;;;;;;5053874;28;20152;-72
2021/11/04 06:59:25;;;;;;;1.42;1.15;;;5.30;99.90;;;;;;5061947;28;20082;-72
2021/11/04 07:01:57;;;;;;;1.73;1.10;;;5.30;99.90;;;;;;5047819;28;20037;-72
2021/11/04 07:04:28;;;;;;;2.20;1.17;;;5.30;99.90;;;;;;5054528;28;20420;-72
2021/11/04 07:07:27;;;;;;;2.90;0.80;;;5.40;99.90;;;;;;5052147;28;20033;-73
2021/11/04 07:09:46;;;;;;;0.93;0.88;;;5.40;99.90;;;;;;5050864;28;20048;-72
2021/11/04 07:12:13;;;;;;;2.17;1.00;;;5.40;99.90;;;;;;5051587;28;20386;-71
2021/11/04 07:14:41;;;;;;;2.05;0.82;;;5.50;99.90;;;;;;5051146;28;20104;-71
2021/11/04 07:17:10;;;;;;;3.92;1.00;;;5.60;99.90;;;;;;5055255;28;20025;-71
2021/11/04 07:19:35;;;;;;;2.95;0.90;;;5.60;99.90;;;;;;5051288;28;20032;-71
2021/11/04 07:22:22;;;;;;;1.55;0.85;;;5.70;99.90;;;;;;5051548;28;20117;-71
2021/11/04 07:24:54;;;;;;;1.13;0.77;;;5.60;99.90;;;;;;5049829;28;20100;-74
2021/11/04 07:27:35;;;;;;;1.98;1.05;;;5.70;99.90;;;;;;5052899;28;20496;-74
2021/11/04 07:30:05;;;;;;;0.50;0.50;;;5.70;99.90;;;;;;5053811;28;20500;-73
2021/11/04 07:32:32;;;;;;;2.30;0.65;;;5.70;99.90;;;;;;5059858;28;20478;-72
2021/11/04 07:34:58;;;;;;;1.10;1.00;;;5.70;99.90;;;;;;5058061;28;20036;-77
2021/11/04 07:37:30;;;;;;;1.00;0.73;;;5.70;99.90;;;;;;5065165;28;20070;-76
2021/11/04 07:39:56;;;;;;;0.90;0.90;;;5.70;99.90;;;;;;5054264;28;20462;-73
2021/11/04 07:42:22;;;;;;;2.88;1.00;;;5.70;99.90;;;;;;5056190;28;20045;-75
2021/11/04 07:44:48;;;;;;;1.65;1.10;;;5.70;99.90;;;;;;5059875;28;20098;-75
2021/11/04 07:47:15;;;;;;;1.67;0.98;;;5.70;99.90;;;;;;5069766;28;20032;-74
2021/11/04 07:49:42;;;;;;;1.30;0.80;;;5.80;99.90;;;;;;5053582;28;20025;-74
2021/11/04 07:52:08;;;;;;;1.27;0.88;;;5.70;99.90;;;;;;5060206;28;20035;-73
2021/11/04 07:54:34;;;;;;;0.80;0.80;;;5.80;99.90;;;;;;5064872;28;20029;-75
2021/11/04 07:57:00;;;;;;;1.52;0.90;;;5.80;99.90;;;;;;5056837;28;20391;-74
2021/11/04 07:59:30;;;;;;;2.35;1.00;;;5.80;99.90;;;;;;5052325;28;20092;-73
2021/11/04 08:01:56;;;;;;;2.10;1.20;;;5.80;99.90;;;;;;5048260;28;20037;-76
2021/11/04 08:04:23;;;;;;;2.92;1.08;;;5.90;99.90;;;;;;5049405;28;20122;-73
2021/11/04 08:06:49;;;;;;;1.38;1.27;;;5.90;99.90;;;;;;5051177;28;20047;-74
2021/11/04 08:09:15;;;;;;;2.25;1.00;;;5.90;99.90;;;;;;5049578;28;20474;-73
2021/11/04 08:11:41;;;;;;;1.73;1.30;;;5.80;99.90;;;;;;5051091;28;20491;-72
2021/11/04 08:14:07;;;;;;;1.55;1.15;;;5.70;99.90;;;;;;5051165;28;20037;-72
2021/11/04 08:16:32;;;;;;;3.15;1.55;;;5.70;99.90;;;;;;5050357;28;20060;-73
2021/11/04 08:18:58;;;;;;;1.83;1.50;;;5.60;99.90;;;;;;5051849;28;20055;-73
2021/11/04 08:21:23;;;;;;;2.75;1.70;;;5.50;99.90;;;;;;5059376;28;20061;-73
2021/11/04 08:23:49;;;;;;;4.30;1.60;;;5.50;99.90;;;;;;5049117;28;20107;-72
2021/11/04 08:26:15;;;;;;;4.43;1.90;;;5.50;99.90;;;;;;5050693;28;20036;-74
2021/11/04 08:28:41;;;;;;;3.20;2.28;;;5.40;99.90;;;;;;5049966;28;20025;-74
2021/11/04 08:31:07;;;;;;;1.80;1.50;;;5.50;99.90;;;;;;5049674;28;20478;-74
2021/11/04 08:33:33;;;;;;;3.38;2.00;;;5.40;99.90;;;;;;5048272;28;20025;-72
2021/11/04 08:35:59;;;;;;;2.67;1.85;;;5.40;99.90;;;;;;5050887;28;20427;-73
2021/11/04 08:38:25;;;;;;;3.72;2.70;;;5.50;99.90;;;;;;5050738;28;20025;-73
2021/11/04 08:40:51;;;;;;;3.80;2.40;;;5.50;99.90;;;;;;5052518;28;20031;-74
2021/11/04 08:43:17;;;;;;;4.07;2.83;;;5.50;99.90;;;;;;5054360;28;20492;-74
2021/11/04 08:45:43;;;;;;;3.90;2.30;;;5.50;99.90;;;;;;5053369;28;20479;-72
2021/11/04 08:48:10;;;;;;;2.83;2.25;;;5.50;99.90;;;;;;5054839;28;20111;-73
2021/11/04 08:50:36;;;;;;;3.05;2.13;;;5.50;99.90;;;;;;5054234;28;20036;-73
2021/11/04 08:53:02;;;;;;;5.30;2.80;;;5.50;99.90;;;;;;5053973;28;20370;-72
2021/11/04 08:55:27;;;;;;;4.00;2.70;;;5.50;99.90;;;;;;5054150;28;20028;-71
2021/11/04 08:57:54;;;;;;;4.63;2.75;;;5.60;99.90;;;;;;5053975;28;20043;-73
2021/11/04 09:00:20;;;;;;;2.55;2.35;;;5.60;99.90;;;;;;5054613;28;20036;-73
2021/11/04 09:02:47;;;;;;;2.60;2.40;;;5.60;99.90;;;;;;5053675;28;20033;-74
2021/11/04 09:05:13;;;;;;;3.03;2.50;;;5.60;99.90;;;;;;5054553;28;20025;-74
2021/11/04 09:07:43;;;;;;;3.88;2.65;;;5.70;99.90;;;;;;5053811;28;20031;-73
2021/11/04 09:10:10;;;;;;;7.60;3.05;;;5.70;99.90;;;;;;5054540;28;20043;-74
2021/11/04 09:12:39;;;;;;;4.05;2.00;;;5.80;99.90;;;;;;5053428;28;20065;-72
2021/11/04 09:15:07;;;;;;;3.42;2.28;;;5.80;99.90;;;;;;5054314;28;20025;-72
2021/11/04 09:17:32;;;;;;;4.55;2.28;;;5.90;99.90;;;;;;5053475;28;20355;-72
2021/11/04 09:19:59;;;;;;;3.35;2.40;;;5.90;99.90;;;;;;5053140;28;20032;-74
2021/11/04 09:22:24;;;;;;;3.70;2.22;;;6.00;99.90;;;;;;5054173;28;20040;-73
2021/11/04 09:24:50;;;;;;;3.03;2.47;;;6.00;99.90;;;;;;5052573;28;20124;-73
2021/11/04 09:27:16;;;;;;;3.13;2.40;;;6.00;99.90;;;;;;5055329;28;20044;-71
2021/11/04 09:29:43;;;;;;;2.13;1.92;;;6.00;99.90;;;;;;5062646;28;20061;-72
2021/11/04 09:32:12;;;;;;;3.70;2.25;;;6.10;99.90;;;;;;5046992;28;20040;-71
2021/11/04 09:34:39;;;;;;;2.42;1.90;;;6.10;99.90;;;;;;5064535;28;20031;-70
2021/11/04 09:37:11;;;;;;;2.58;1.42;;;6.10;99.90;;;;;;5064949;28;20023;-70
2021/11/04 09:39:37;;;;;;;4.03;1.85;;;6.10;99.90;;;;;;5070222;28;20430;-68
2021/11/04 09:42:03;;;;;;;1.70;1.58;;;6.10;99.90;;;;;;5056095;28;20437;-70
2021/11/04 09:44:30;;;;;;;4.28;1.90;;;6.20;99.90;;;;;;5066225;28;20109;-71
2021/11/04 09:46:56;;;;;;;2.25;1.52;;;6.20;99.90;;;;;;5062832;28;20032;-68
2021/11/04 09:49:22;;;;;;;3.35;1.80;;;6.20;99.90;;;;;;5052893;28;20163;-68
2021/11/04 09:51:49;;;;;;;3.97;1.85;;;6.20;99.90;;;;;;5052601;28;20021;-68
2021/11/04 09:54:14;;;;;;;3.92;1.63;;;6.20;99.90;;;;;;5053736;28;20390;-68
2021/11/04 09:56:40;;;;;;;1.67;1.40;;;6.20;99.90;;;;;;5053188;28;20036;-73
2021/11/04 09:59:06;;;;;;;4.35;1.55;;;6.20;99.90;;;;;;5053148;28;20025;-69
2021/11/04 10:01:34;;;;;;;1.58;1.25;;;6.20;99.90;;;;;;5045133;28;20029;-69
2021/11/04 10:04:02;;;;;;;3.15;1.40;;;6.20;99.90;;;;;;5052197;28;20100;-70
2021/11/04 10:06:38;;;;;;;1.83;0.93;;;6.20;99.90;;;;;;5053397;28;20036;-70
2021/11/04 10:09:09;;;;;;;0.88;0.70;;;6.20;99.90;;;;;;5053385;28;20025;-70
2021/11/04 10:11:42;;;;;;;1.45;0.95;;;6.20;99.90;;;;;;5052579;28;20039;-69
2021/11/04 10:14:10;;;;;;;1.45;1.02;;;6.20;99.90;;;;;;5053294;28;20489;-70
2021/11/04 10:16:37;;;;;;;0.82;0.75;;;6.10;99.90;;;;;;5052357;28;20116;-69
2021/11/04 10:19:14;;;;;;;1.58;0.60;;;6.20;99.90;;;;;;5053163;28;20025;-69
2021/11/04 10:21:47;;;;;;;0.73;0.70;;;6.20;99.90;;;;;;5052137;28;20033;-69
2021/11/04 10:24:19;;;;;;;1.67;0.90;;;6.10;99.90;;;;;;5052728;28;20409;-70
2021/11/04 10:26:46;;;;;;;0.85;0.70;;;6.10;99.90;;;;;;5051927;28;20471;-69
2021/11/04 10:29:14;;;;;;;1.38;0.70;;;6.10;99.90;;;;;;5052940;28;20060;-68
2021/11/04 10:31:57;;;;;;;1.02;0.30;;;6.10;99.90;;;;;;5051601;28;20094;-69
2021/11/04 10:34:36;;;;;;;0.88;0.47;;;6.10;99.90;;;;;;5052956;28;20029;-69
2021/11/04 10:37:20;;;;;;;1.77;0.50;;;6.10;99.90;;;;;;5052909;28;20048;-69
2021/11/04 10:39:46;;;;;;;0.95;0.77;;;6.10;99.90;;;;;;5051832;28;20465;-68
2021/11/04 10:42:12;;;;;;;1.38;0.77;;;6.10;99.90;;;;;;5051889;28;20059;-69
2021/11/04 10:44:39;;;;;;;1.23;0.50;;;6.20;99.90;;;;;;5051008;28;20128;-69
2021/11/04 10:47:05;;;;;;;0.73;0.52;;;6.20;99.90;;;;;;5051132;28;20033;-69
2021/11/04 10:49:47;;;;;;;3.05;1.13;;;6.20;99.90;;;;;;5051792;28;20033;-69
2021/11/04 10:52:14;;;;;;;1.10;0.80;;;6.20;99.90;;;;;;5051636;28;20528;-69
2021/11/04 10:54:51;;;;;;;3.10;0.90;;;6.30;99.90;;;;;;5049658;28;20377;-70
2021/11/04 10:57:41;;;;;;;1.73;1.13;;;6.30;99.90;;;;;;5051721;28;20041;-69
2021/11/04 11:00:23;;;;;;;1.27;0.98;;;6.30;99.90;;;;;;5045781;28;20047;-71
2021/11/04 11:03:01;;;;;;;1.20;1.10;;;6.30;99.90;;;;;;5048845;28;20047;-70
2021/11/04 11:05:35;;;;;;;1.70;1.05;;;6.30;99.90;;;;;;5051212;28;20394;-69
2021/11/04 11:08:03;;;;;;;1.60;1.00;;;6.30;99.90;;;;;;5051399;28;20389;-69
2021/11/04 11:10:29;;;;;;;1.95;1.20;;;6.30;99.90;;;;;;5051206;28;20033;-70
2021/11/04 11:12:55;;;;;;;2.63;0.95;;;6.50;99.90;;;;;;5050828;28;20385;-70
2021/11/04 11:15:21;;;;;;;1.55;1.15;;;6.60;99.90;;;;;;5050841;28;20036;-70
2021/11/04 11:17:48;;;;;;;1.75;1.08;;;6.60;99.90;;;;;;5049383;28;20419;-67
2021/11/04 11:20:16;;;;;;;1.92;1.35;;;6.60;99.90;;;;;;5051420;28;20040;-68
2021/11/04 11:22:46;;;;;;;2.42;1.20;;;6.70;99.90;;;;;;5049981;28;20052;-69
2021/11/04 11:25:12;;;;;;;;;;;6.70;99.90;;;;;;5051553;28;20110;-70
2021/11/04 11:27:38;;;;;;;2.58;1.98;;;6.80;99.90;;;;;;5050667;28;19963;-68
2021/11/04 11:30:11;;;;;;;1.42;1.13;;;6.80;99.90;;;;;;5051344;28;20028;-69
2021/11/04 11:32:37;;;;;;;1.33;1.23;;;6.80;99.90;;;;;;5049673;28;20033;-68
2021/11/04 11:35:22;;;;;;;2.67;1.40;;;6.80;99.90;;;;;;5051183;28;20029;-68
2021/11/04 11:37:55;;;;;;;2.00;1.85;;;6.80;99.90;;;;;;5050345;28;20035;-68
2021/11/04 11:40:22;;;;;;;1.83;1.42;;;6.70;99.90;;;;;;5051286;28;20020;-68
2021/11/04 11:43:06;;;;;;;1.83;1.63;;;6.70;99.90;;;;;;5049997;28;20051;-68
2021/11/04 11:45:36;;;;;;;2.85;1.95;;;6.70;99.90;;;;;;5049675;28;20052;-68
2021/11/04 11:48:18;;;;;;;2.58;2.17;;;6.70;99.90;;;;;;5050967;28;20021;-68
2021/11/04 11:50:45;;;;;;;3.28;2.92;;;6.60;99.90;;;;;;5050915;28;20036;-68
2021/11/04 11:53:41;;;;;;;4.03;2.92;;;6.60;99.90;;;;;;5051418;28;20021;-69
2021/11/04 11:56:23;;;;;;;4.22;3.13;;;6.50;99.90;;;;;;5050920;28;20029;-69
2021/11/04 11:58:50;;;;;;;4.25;2.90;;;6.50;99.90;;;;;;5050184;28;20539;-71
2021/11/04 12:01:20;;;;;;;4.07;3.30;;;6.50;99.90;;;;;;5050237;28;20045;-71
2021/11/04 12:04:00;;;;;;;6.05;3.92;;;6.50;99.90;;;;;;5050305;28;20255;-70
2021/11/04 12:06:28;;;;;;;4.28;3.58;;;6.50;99.90;;;;;;5051065;28;20029;-71
2021/11/04 12:08:58;;;;;;;5.35;4.43;;;6.70;99.90;;;;;;5050127;28;20024;-70
2021/11/04 12:11:36;;;;;;;5.90;4.53;;;6.70;99.90;;;;;;5050691;28;20098;-70
2021/11/04 12:14:20;;;;;;;7.72;5.00;;;6.60;99.90;;;;;;5050789;28;20029;-70
2021/11/04 12:17:01;;;;;;;6.35;4.82;;;6.60;99.90;;;;;;5053648;28;20489;-70
2021/11/04 12:19:46;;;;;;;8.25;4.95;;;6.70;99.90;;;;;;5054783;28;20021;-70
2021/11/04 12:22:17;;;;;;;7.75;5.93;;;6.80;99.90;;;;;;5054423;28;20041;-68
2021/11/04 12:24:49;;;;;;;8.73;5.55;;;6.80;99.90;;;;;;5053729;28;20446;-69
2021/11/04 12:27:16;;;;;;;6.82;5.07;;;6.80;99.90;;;;;;5054682;28;20092;-69
2021/11/04 12:29:43;;;;;;;7.15;4.75;;;6.80;99.90;;;;;;5053760;28;20025;-69
2021/11/04 12:32:13;;;;;;;7.50;5.68;;;6.90;99.90;;;;;;5053594;28;20490;-68
2021/11/04 12:34:40;;;;;;;5.90;4.72;;;7.00;99.90;;;;;;5053369;28;20087;-69
2021/11/04 12:37:13;;;;;;;6.25;4.95;;;7.00;99.90;;;;;;5054393;28;20025;-73
2021/11/04 12:39:45;;;;;;;6.57;5.10;;;7.10;99.90;;;;;;5053932;28;20020;-78
2021/11/04 12:42:15;;;;;;;5.93;4.68;;;7.30;99.90;;;;;;5054522;28;20076;-72
2021/11/04 12:44:40;;;;;;;6.15;4.38;;;7.50;99.90;;;;;;5053701;28;20053;-71
2021/11/04 12:47:06;;;;;;;6.32;4.70;;;7.60;99.90;;;;;;5054439;28;20052;-71
2021/11/04 12:49:35;;;;;;;5.60;4.88;;;7.70;99.90;;;;;;5054319;28;20474;-71
2021/11/04 12:52:04;;;;;;;5.70;4.30;;;7.70;99.90;;;;;;5054472;28;20025;-70
2021/11/04 12:54:37;;;;;;;4.47;4.07;;;7.80;99.90;;;;;;5054340;28;20114;-71
2021/11/04 12:57:06;;;;;;;4.63;4.18;;;7.80;99.90;;;;;;5054454;28;20149;-71
2021/11/04 12:59:54;;;;;;;5.95;4.50;;;7.80;99.90;;;;;;5054601;28;20021;-71
2021/11/04 13:02:36;;;;;;;4.07;3.67;;;7.90;99.90;;;;;;5053865;28;20105;-70